sensor_id;sensor_type;location;lat;lon;timestamp;pressure;altitude;pressure_sealevel;temperature;humidity
7754;BME280;3921;42.266;23.122;2023-04-07T00:02:00;95469.16;;;7.16;42.00
7754;BME280;3921;42.266;23.122;2023-04-07T00:04:27;95378.81;;;6.58;41.78
7754;BME280;3921;42.266;23.122;2023-04-07T00:06:54;95103.16;;;4.96;41.65
7754;BME280;3921;42.266;23.122;2023-04-07T00:09:22;95352.00;;;6.36;41.53
7754;BME280;3921;42.266;23.122;2023-04-07T00:11:49;95338.69;;;6.31;41.88
7754;BME280;3921;42.266;23.122;2023-04-07T00:14:17;95373.81;;;6.58;42.32
7754;BME280;3921;42.266;23.122;2023-04-07T00:16:45;95189.09;;;5.40;41.59
7754;BME280;3921;42.266;23.122;2023-04-07T00:19:12;95250.84;;;5.71;42.00
7754;BME280;3921;42.266;23.122;2023-04-07T00:21:39;95231.53;;;5.50;41.99
7754;BME280;3921;42.266;23.122;2023-04-07T00:24:06;95155.44;;;4.96;43.07
7754;BME280;3921;42.266;23.122;2023-04-07T00:26:33;95016.09;;;4.16;43.73
7754;BME280;3921;42.266;23.122;2023-04-07T00:29:00;94932.72;;;3.71;44.46
7754;BME280;3921;42.266;23.122;2023-04-07T00:31:29;95381.09;;;6.32;44.92
7754;BME280;3921;42.266;23.122;2023-04-07T00:33:56;95430.59;;;6.82;45.50
7754;BME280;3921;42.266;23.122;2023-04-07T00:36:23;95369.41;;;6.27;45.65
7754;BME280;3921;42.266;23.122;2023-04-07T00:38:50;95136.41;;;5.03;44.97
7754;BME280;3921;42.266;23.122;2023-04-07T00:41:17;95216.66;;;5.58;43.75
7754;BME280;3921;42.266;23.122;2023-04-07T00:43:44;95323.69;;;6.28;43.02
7754;BME280;3921;42.266;23.122;2023-04-07T00:46:11;95340.44;;;6.44;42.41
7754;BME280;3921;42.266;23.122;2023-04-07T00:48:40;95150.78;;;5.30;42.52
7754;BME280;3921;42.266;23.122;2023-04-07T00:51:07;95234.16;;;5.66;43.03
7754;BME280;3921;42.266;23.122;2023-04-07T00:53:35;95338.78;;;6.43;43.34
7754;BME280;3921;42.266;23.122;2023-04-07T00:56:02;95338.78;;;6.46;44.13
7754;BME280;3921;42.266;23.122;2023-04-07T00:58:29;95290.34;;;6.20;44.32
7754;BME280;3921;42.266;23.122;2023-04-07T01:01:01;95353.84;;;6.58;44.19
7754;BME280;3921;42.266;23.122;2023-04-07T01:03:34;95284.50;;;6.18;44.96
7754;BME280;3921;42.266;23.122;2023-04-07T01:06:05;95368.84;;;6.60;44.08
7754;BME280;3921;42.266;23.122;2023-04-07T01:08:47;95354.69;;;6.59;43.21
7754;BME280;3921;42.266;23.122;2023-04-07T01:11:22;95455.88;;;7.27;43.83
7754;BME280;3921;42.266;23.122;2023-04-07T01:13:51;95348.84;;;6.58;44.96
7754;BME280;3921;42.266;23.122;2023-04-07T01:16:23;95216.75;;;5.69;45.26
7754;BME280;3921;42.266;23.122;2023-04-07T01:18:56;95393.84;;;6.64;45.58
7754;BME280;3921;42.266;23.122;2023-04-07T01:21:26;95370.53;;;6.62;46.06
7754;BME280;3921;42.266;23.122;2023-04-07T01:24:15;95480.03;;;7.28;46.25
7754;BME280;3921;42.266;23.122;2023-04-07T01:26:49;95251.09;;;5.97;46.66
7754;BME280;3921;42.266;23.122;2023-04-07T01:29:33;95348.81;;;6.49;46.85
7754;BME280;3921;42.266;23.122;2023-04-07T01:32:03;95296.97;;;6.18;47.32
7754;BME280;3921;42.266;23.122;2023-04-07T01:34:31;95158.16;;;5.18;47.72
7754;BME280;3921;42.266;23.122;2023-04-07T01:37:00;95347.97;;;6.52;47.98
7754;BME280;3921;42.266;23.122;2023-04-07T01:39:28;95390.53;;;6.70;48.04
7754;BME280;3921;42.266;23.122;2023-04-07T01:41:56;95373.69;;;6.42;47.99
7754;BME280;3921;42.266;23.122;2023-04-07T01:44:28;95277.56;;;5.88;48.60
7754;BME280;3921;42.266;23.122;2023-04-07T01:46:58;95370.44;;;6.50;48.53
7754;BME280;3921;42.266;23.122;2023-04-07T01:49:27;95141.59;;;5.24;48.85
7754;BME280;3921;42.266;23.122;2023-04-07T01:51:56;95439.94;;;7.08;48.73
7754;BME280;3921;42.266;23.122;2023-04-07T01:54:24;95281.81;;;5.96;49.06
7754;BME280;3921;42.266;23.122;2023-04-07T01:56:51;95016.38;;;4.43;48.97
7754;BME280;3921;42.266;23.122;2023-04-07T01:59:18;95148.16;;;5.13;49.54
7754;BME280;3921;42.266;23.122;2023-04-07T02:01:47;95099.78;;;4.93;49.41
7754;BME280;3921;42.266;23.122;2023-04-07T02:04:20;95280.25;;;6.06;49.12
7754;BME280;3921;42.266;23.122;2023-04-07T02:06:51;95451.66;;;7.12;49.15
7754;BME280;3921;42.266;23.122;2023-04-07T02:09:20;95186.66;;;5.50;49.28
7754;BME280;3921;42.266;23.122;2023-04-07T02:11:49;95264.41;;;5.99;50.01
7754;BME280;3921;42.266;23.122;2023-04-07T02:14:19;95276.91;;;6.05;49.75
7754;BME280;3921;42.266;23.122;2023-04-07T02:16:50;95038.94;;;4.60;49.73
7754;BME280;3921;42.266;23.122;2023-04-07T02:19:18;95098.84;;;4.82;49.09
7754;BME280;3921;42.266;23.122;2023-04-07T02:21:47;95258.38;;;5.79;49.92
7754;BME280;3921;42.266;23.122;2023-04-07T02:24:18;95190.81;;;5.47;50.10
7754;BME280;3921;42.266;23.122;2023-04-07T02:26:46;95087.34;;;4.93;49.91
7754;BME280;3921;42.266;23.122;2023-04-07T02:29:13;95366.28;;;6.49;50.03
7754;BME280;3921;42.266;23.122;2023-04-07T02:31:40;95026.38;;;4.48;49.86
7754;BME280;3921;42.266;23.122;2023-04-07T02:34:09;95359.47;;;6.31;50.24
7754;BME280;3921;42.266;23.122;2023-04-07T02:36:36;94942.78;;;3.83;50.03
7754;BME280;3921;42.266;23.122;2023-04-07T02:39:03;95098.59;;;4.57;50.19
7754;BME280;3921;42.266;23.122;2023-04-07T02:41:30;95338.50;;;6.09;50.41
7754;BME280;3921;42.266;23.122;2023-04-07T02:43:57;95347.78;;;6.27;49.66
7754;BME280;3921;42.266;23.122;2023-04-07T02:46:24;95331.91;;;6.18;48.57
7754;BME280;3921;42.266;23.122;2023-04-07T02:48:51;95447.31;;;6.92;48.36
7754;BME280;3921;42.266;23.122;2023-04-07T02:51:19;95370.41;;;6.47;48.07
7754;BME280;3921;42.266;23.122;2023-04-07T02:53:47;95398.69;;;6.43;48.46
7754;BME280;3921;42.266;23.122;2023-04-07T02:56:14;95350.19;;;6.18;48.14
7754;BME280;3921;42.266;23.122;2023-04-07T02:58:41;95190.66;;;5.33;48.20
7754;BME280;3921;42.266;23.122;2023-04-07T03:01:08;95249.94;;;5.65;48.05
7754;BME280;3921;42.266;23.122;2023-04-07T03:03:35;95367.59;;;6.12;49.25
7754;BME280;3921;42.266;23.122;2023-04-07T03:06:05;95290.00;;;5.83;49.27
7754;BME280;3921;42.266;23.122;2023-04-07T03:08:36;95260.00;;;5.74;50.16
7754;BME280;3921;42.266;23.122;2023-04-07T03:11:03;95072.00;;;4.50;49.64
7754;BME280;3921;42.266;23.122;2023-04-07T03:13:30;94981.78;;;3.89;49.57
7754;BME280;3921;42.266;23.122;2023-04-07T03:15:57;95293.22;;;5.73;49.07
7754;BME280;3921;42.266;23.122;2023-04-07T03:18:24;95458.88;;;6.81;48.77
7754;BME280;3921;42.266;23.122;2023-04-07T03:20:51;94913.47;;;3.52;48.28
7754;BME280;3921;42.266;23.122;2023-04-07T03:23:19;95333.44;;;6.03;48.11
7754;BME280;3921;42.266;23.122;2023-04-07T03:25:49;95385.28;;;6.35;48.93
7754;BME280;3921;42.266;23.122;2023-04-07T03:28:16;95452.09;;;6.63;48.83
7754;BME280;3921;42.266;23.122;2023-04-07T03:30:46;94951.56;;;3.55;48.94
7754;BME280;3921;42.266;23.122;2023-04-07T03:33:13;95408.44;;;6.22;48.61
7754;BME280;3921;42.266;23.122;2023-04-07T03:35:41;95442.09;;;6.63;47.12
7754;BME280;3921;42.266;23.122;2023-04-07T03:38:08;95438.72;;;6.54;46.77
7754;BME280;3921;42.266;23.122;2023-04-07T03:40:35;95328.28;;;5.88;47.37
7754;BME280;3921;42.266;23.122;2023-04-07T03:43:04;95128.31;;;4.42;47.19
7754;BME280;3921;42.266;23.122;2023-04-07T03:45:36;95329.06;;;5.84;47.27
7754;BME280;3921;42.266;23.122;2023-04-07T03:48:04;94939.00;;;3.41;47.55
7754;BME280;3921;42.266;23.122;2023-04-07T03:50:45;95407.56;;;6.17;48.58
7754;BME280;3921;42.266;23.122;2023-04-07T03:53:13;95260.63;;;5.51;48.73
7754;BME280;3921;42.266;23.122;2023-04-07T03:55:41;95337.28;;;5.74;49.17
7754;BME280;3921;42.266;23.122;2023-04-07T03:58:10;95032.38;;;3.92;48.68
7754;BME280;3921;42.266;23.122;2023-04-07T04:00:38;95402.63;;;6.24;49.17
7754;BME280;3921;42.266;23.122;2023-04-07T04:03:05;95465.28;;;6.50;50.24
7754;BME280;3921;42.266;23.122;2023-04-07T04:05:32;95138.28;;;4.46;49.75
7754;BME280;3921;42.266;23.122;2023-04-07T04:07:59;95405.03;;;6.13;48.86
7754;BME280;3921;42.266;23.122;2023-04-07T04:10:26;95165.00;;;4.61;49.00
7754;BME280;3921;42.266;23.122;2023-04-07T04:12:53;95113.25;;;4.33;48.57
7754;BME280;3921;42.266;23.122;2023-04-07T04:15:22;95381.56;;;5.96;48.58
7754;BME280;3921;42.266;23.122;2023-04-07T04:17:51;95425.09;;;6.23;48.93
7754;BME280;3921;42.266;23.122;2023-04-07T04:20:19;95078.97;;;4.07;48.18
7754;BME280;3921;42.266;23.122;2023-04-07T04:22:46;95375.75;;;5.93;48.98
7754;BME280;3921;42.266;23.122;2023-04-07T04:25:15;95317.00;;;5.43;49.31
7754;BME280;3921;42.266;23.122;2023-04-07T04:27:42;95480.28;;;6.53;49.47
7754;BME280;3921;42.266;23.122;2023-04-07T04:30:09;95204.97;;;4.72;49.88
7754;BME280;3921;42.266;23.122;2023-04-07T04:32:37;95266.00;;;5.11;49.07
7754;BME280;3921;42.266;23.122;2023-04-07T04:35:06;94916.03;;;2.96;49.11
7754;BME280;3921;42.266;23.122;2023-04-07T04:37:33;95313.44;;;5.21;48.92
7754;BME280;3921;42.266;23.122;2023-04-07T04:40:00;95242.50;;;4.89;49.42
7754;BME280;3921;42.266;23.122;2023-04-07T04:42:27;95356.94;;;5.49;48.64
7754;BME280;3921;42.266;23.122;2023-04-07T04:44:56;95396.19;;;5.66;48.65
7754;BME280;3921;42.266;23.122;2023-04-07T04:47:23;95406.41;;;5.85;49.09
7754;BME280;3921;42.266;23.122;2023-04-07T04:50:00;95241.47;;;4.74;49.25
7754;BME280;3921;42.266;23.122;2023-04-07T04:52:27;95263.88;;;4.74;49.18
7754;BME280;3921;42.266;23.122;2023-04-07T04:54:54;95396.09;;;5.58;49.41
7754;BME280;3921;42.266;23.122;2023-04-07T04:57:21;95188.75;;;4.36;49.51
7754;BME280;3921;42.266;23.122;2023-04-07T04:59:49;95270.50;;;4.74;49.44
7754;BME280;3921;42.266;23.122;2023-04-07T05:02:16;95456.38;;;5.96;50.53
7754;BME280;3921;42.266;23.122;2023-04-07T05:04:43;95198.34;;;4.12;50.67
7754;BME280;3921;42.266;23.122;2023-04-07T05:07:12;95020.53;;;3.12;50.36
7754;BME280;3921;42.266;23.122;2023-04-07T05:09:39;95205.28;;;4.33;50.87
7754;BME280;3921;42.266;23.122;2023-04-07T05:12:06;95352.50;;;5.25;50.21
7754;BME280;3921;42.266;23.122;2023-04-07T05:14:33;95344.97;;;5.19;50.21
7754;BME280;3921;42.266;23.122;2023-04-07T05:17:00;94999.59;;;2.98;50.35
7754;BME280;3921;42.266;23.122;2023-04-07T05:19:27;95061.41;;;3.34;50.29
7754;BME280;3921;42.266;23.122;2023-04-07T05:21:55;94998.41;;;2.73;50.16
7754;BME280;3921;42.266;23.122;2023-04-07T05:24:24;95424.16;;;5.43;50.13
7754;BME280;3921;42.266;23.122;2023-04-07T05:26:52;95220.78;;;4.15;50.25
7754;BME280;3921;42.266;23.122;2023-04-07T05:29:19;95416.75;;;5.49;50.02
7754;BME280;3921;42.266;23.122;2023-04-07T05:31:46;95329.75;;;4.98;49.39
7754;BME280;3921;42.266;23.122;2023-04-07T05:34:13;95344.97;;;5.19;48.97
7754;BME280;3921;42.266;23.122;2023-04-07T05:36:40;95477.88;;;5.88;49.00
7754;BME280;3921;42.266;23.122;2023-04-07T05:39:07;95415.13;;;5.51;48.68
7754;BME280;3921;42.266;23.122;2023-04-07T05:41:36;95376.66;;;5.31;48.39
7754;BME280;3921;42.266;23.122;2023-04-07T05:44:03;95310.50;;;4.85;48.73
7754;BME280;3921;42.266;23.122;2023-04-07T05:46:30;94992.69;;;2.77;48.95
7754;BME280;3921;42.266;23.122;2023-04-07T05:48:58;95172.63;;;4.08;48.71
7754;BME280;3921;42.266;23.122;2023-04-07T05:51:25;95422.59;;;5.51;48.41
7754;BME280;3921;42.266;23.122;2023-04-07T05:53:52;95186.81;;;4.17;47.33
7754;BME280;3921;42.266;23.122;2023-04-07T05:56:19;95445.34;;;5.77;48.00
7754;BME280;3921;42.266;23.122;2023-04-07T05:58:49;95094.78;;;3.52;47.89
7754;BME280;3921;42.266;23.122;2023-04-07T06:01:16;95361.56;;;5.20;47.28
7754;BME280;3921;42.266;23.122;2023-04-07T06:03:43;95017.94;;;3.05;47.37
7754;BME280;3921;42.266;23.122;2023-04-07T06:06:13;95141.00;;;3.99;47.85
7754;BME280;3921;42.266;23.122;2023-04-07T06:08:40;95204.53;;;4.38;47.77
7754;BME280;3921;42.266;23.122;2023-04-07T06:11:07;95019.78;;;3.18;47.36
7754;BME280;3921;42.266;23.122;2023-04-07T06:13:35;95217.81;;;4.40;47.09
7754;BME280;3921;42.266;23.122;2023-04-07T06:16:04;95538.44;;;6.46;47.27
7754;BME280;3921;42.266;23.122;2023-04-07T06:18:31;95094.28;;;3.74;47.20
7754;BME280;3921;42.266;23.122;2023-04-07T06:20:58;95354.31;;;5.37;46.47
7754;BME280;3921;42.266;23.122;2023-04-07T06:23:25;95217.91;;;4.46;46.87
7754;BME280;3921;42.266;23.122;2023-04-07T06:25:53;95103.63;;;3.90;46.87
7754;BME280;3921;42.266;23.122;2023-04-07T06:28:20;95533.50;;;6.49;46.97
7754;BME280;3921;42.266;23.122;2023-04-07T06:30:50;95442.31;;;5.98;47.75
7754;BME280;3921;42.266;23.122;2023-04-07T06:33:19;95334.38;;;5.36;47.50
7754;BME280;3921;42.266;23.122;2023-04-07T06:35:50;95417.16;;;5.83;47.82
7754;BME280;3921;42.266;23.122;2023-04-07T06:38:17;94880.16;;;2.74;47.10
7754;BME280;3921;42.266;23.122;2023-04-07T06:40:44;95317.84;;;5.42;47.09
7754;BME280;3921;42.266;23.122;2023-04-07T06:43:11;95408.16;;;5.96;48.06
7754;BME280;3921;42.266;23.122;2023-04-07T06:45:39;95123.09;;;4.23;47.56
7754;BME280;3921;42.266;23.122;2023-04-07T06:48:06;95266.94;;;5.20;47.32
7754;BME280;3921;42.266;23.122;2023-04-07T06:50:37;95048.81;;;3.81;46.90
7754;BME280;3921;42.266;23.122;2023-04-07T06:53:04;94976.41;;;3.55;46.64
7754;BME280;3921;42.266;23.122;2023-04-07T06:55:31;94957.28;;;3.46;46.32
7754;BME280;3921;42.266;23.122;2023-04-07T06:57:58;95250.44;;;5.31;46.28
7754;BME280;3921;42.266;23.122;2023-04-07T07:00:26;94964.94;;;3.63;45.18
7754;BME280;3921;42.266;23.122;2023-04-07T07:02:55;95439.41;;;6.42;45.17
7754;BME280;3921;42.266;23.122;2023-04-07T07:05:22;95055.16;;;4.26;44.65
7754;BME280;3921;42.266;23.122;2023-04-07T07:07:51;95383.41;;;6.12;44.78
7754;BME280;3921;42.266;23.122;2023-04-07T07:10:20;95388.50;;;6.22;43.74
7754;BME280;3921;42.266;23.122;2023-04-07T07:12:48;95433.66;;;6.49;42.44
7754;BME280;3921;42.266;23.122;2023-04-07T07:15:15;95531.72;;;7.29;41.96
7754;BME280;3921;42.266;23.122;2023-04-07T07:17:42;95428.78;;;6.64;40.79
7754;BME280;3921;42.266;23.122;2023-04-07T07:20:10;95112.91;;;4.75;39.14
7754;BME280;3921;42.266;23.122;2023-04-07T07:22:37;95368.72;;;6.45;39.49
7754;BME280;3921;42.266;23.122;2023-04-07T07:25:06;95213.06;;;5.31;39.47
7754;BME280;3921;42.266;23.122;2023-04-07T07:27:35;95228.22;;;5.51;38.84
7754;BME280;3921;42.266;23.122;2023-04-07T07:30:02;95382.09;;;6.48;38.80
7754;BME280;3921;42.266;23.122;2023-04-07T07:32:30;95281.72;;;5.85;38.78
7754;BME280;3921;42.266;23.122;2023-04-07T07:34:58;95162.38;;;5.25;39.29
7754;BME280;3921;42.266;23.122;2023-04-07T07:37:25;95388.78;;;6.55;38.83
7754;BME280;3921;42.266;23.122;2023-04-07T07:39:52;95493.25;;;7.08;39.25
7754;BME280;3921;42.266;23.122;2023-04-07T07:42:22;95279.50;;;6.16;39.16
7754;BME280;3921;42.266;23.122;2023-04-07T07:44:49;95211.81;;;5.75;39.23
7754;BME280;3921;42.266;23.122;2023-04-07T07:47:16;95189.16;;;5.50;39.18
7754;BME280;3921;42.266;23.122;2023-04-07T07:49:43;95414.97;;;7.09;39.37
7754;BME280;3921;42.266;23.122;2023-04-07T07:52:11;95414.13;;;7.10;39.41
7754;BME280;3921;42.266;23.122;2023-04-07T07:54:38;95395.75;;;6.98;38.92
7754;BME280;3921;42.266;23.122;2023-04-07T07:57:05;95430.88;;;7.17;38.56
7754;BME280;3921;42.266;23.122;2023-04-07T07:59:33;95269.56;;;6.24;39.28
7754;BME280;3921;42.266;23.122;2023-04-07T08:02:01;95005.09;;;4.76;39.39
7754;BME280;3921;42.266;23.122;2023-04-07T08:04:28;95056.66;;;4.92;38.56
7754;BME280;3921;42.266;23.122;2023-04-07T08:06:55;94957.50;;;4.42;38.88
7754;BME280;3921;42.266;23.122;2023-04-07T08:09:22;95001.78;;;4.80;38.71
7754;BME280;3921;42.266;23.122;2023-04-07T08:11:49;95461.81;;;7.41;38.55
7754;BME280;3921;42.266;23.122;2023-04-07T08:14:19;95330.69;;;6.78;39.40
7754;BME280;3921;42.266;23.122;2023-04-07T08:16:48;95309.81;;;6.70;38.74
7754;BME280;3921;42.266;23.122;2023-04-07T08:19:15;95426.88;;;7.53;39.41
7754;BME280;3921;42.266;23.122;2023-04-07T08:21:42;95254.75;;;6.47;39.35
7754;BME280;3921;42.266;23.122;2023-04-07T08:24:09;95589.81;;;8.16;38.09
7754;BME280;3921;42.266;23.122;2023-04-07T08:26:37;95206.34;;;6.16;38.60
7754;BME280;3921;42.266;23.122;2023-04-07T08:29:04;95269.78;;;6.51;38.59
7754;BME280;3921;42.266;23.122;2023-04-07T08:31:36;95306.56;;;6.81;38.81
7754;BME280;3921;42.266;23.122;2023-04-07T08:34:04;95163.81;;;6.02;38.41
7754;BME280;3921;42.266;23.122;2023-04-07T08:36:31;95325.03;;;7.09;38.71
7754;BME280;3921;42.266;23.122;2023-04-07T08:38:58;95544.03;;;8.40;38.31
7754;BME280;3921;42.266;23.122;2023-04-07T08:41:29;95508.97;;;8.43;38.24
7754;BME280;3921;42.266;23.122;2023-04-07T08:44:00;95426.19;;;7.91;38.24
7754;BME280;3921;42.266;23.122;2023-04-07T08:46:28;95399.50;;;7.85;37.73
7754;BME280;3921;42.266;23.122;2023-04-07T08:48:56;95450.47;;;8.16;37.19
7754;BME280;3921;42.266;23.122;2023-04-07T08:51:26;95447.13;;;8.11;37.48
7754;BME280;3921;42.266;23.122;2023-04-07T08:53:59;95328.47;;;7.33;37.89
7754;BME280;3921;42.266;23.122;2023-04-07T08:56:29;95164.13;;;6.49;37.75
7754;BME280;3921;42.266;23.122;2023-04-07T08:58:58;95387.81;;;7.80;37.65
7754;BME280;3921;42.266;23.122;2023-04-07T09:01:28;95013.06;;;5.48;38.18
7754;BME280;3921;42.266;23.122;2023-04-07T09:03:56;95490.66;;;8.56;37.81
7754;BME280;3921;42.266;23.122;2023-04-07T09:06:25;95132.44;;;6.39;37.68
7754;BME280;3921;42.266;23.122;2023-04-07T09:08:53;95327.75;;;7.66;37.42
7754;BME280;3921;42.266;23.122;2023-04-07T09:11:20;95019.03;;;5.76;37.33
7754;BME280;3921;42.266;23.122;2023-04-07T09:13:48;95515.75;;;8.84;37.33
7754;BME280;3921;42.266;23.122;2023-04-07T09:16:15;95364.56;;;8.14;37.58
7754;BME280;3921;42.266;23.122;2023-04-07T09:18:42;95286.09;;;7.77;37.64
7754;BME280;3921;42.266;23.122;2023-04-07T09:21:10;95085.94;;;6.56;37.56
7754;BME280;3921;42.266;23.122;2023-04-07T09:23:39;95065.13;;;6.59;38.40
7754;BME280;3921;42.266;23.122;2023-04-07T09:26:21;95199.34;;;7.44;37.20
7754;BME280;3921;42.266;23.122;2023-04-07T09:28:52;95335.38;;;8.27;37.30
7754;BME280;3921;42.266;23.122;2023-04-07T09:31:20;95075.13;;;6.56;37.04
7754;BME280;3921;42.266;23.122;2023-04-07T09:33:48;95426.38;;;8.50;36.84
7754;BME280;3921;42.266;23.122;2023-04-07T09:36:16;95305.31;;;8.10;36.49
7754;BME280;3921;42.266;23.122;2023-04-07T09:38:45;95366.28;;;8.50;36.51
7754;BME280;3921;42.266;23.122;2023-04-07T09:41:13;95450.63;;;9.07;36.75
7754;BME280;3921;42.266;23.122;2023-04-07T09:43:42;95409.69;;;9.03;36.30
7754;BME280;3921;42.266;23.122;2023-04-07T09:46:11;95186.91;;;7.70;35.72
7754;BME280;3921;42.266;23.122;2023-04-07T09:48:39;95247.75;;;7.89;35.65
7754;BME280;3921;42.266;23.122;2023-04-07T09:51:08;95322.03;;;8.46;35.74
7754;BME280;3921;42.266;23.122;2023-04-07T09:53:46;95189.41;;;7.75;35.86
7754;BME280;3921;42.266;23.122;2023-04-07T09:56:14;95357.91;;;8.90;35.56
7754;BME280;3921;42.266;23.122;2023-04-07T09:58:43;95290.34;;;8.41;35.30
7754;BME280;3921;42.266;23.122;2023-04-07T10:01:11;95315.34;;;8.71;34.79
7754;BME280;3921;42.266;23.122;2023-04-07T10:03:38;95490.56;;;9.89;34.35
7754;BME280;3921;42.266;23.122;2023-04-07T10:06:06;95152.69;;;7.90;34.75
7754;BME280;3921;42.266;23.122;2023-04-07T10:08:35;95452.09;;;9.85;34.78
7754;BME280;3921;42.266;23.122;2023-04-07T10:11:04;95092.72;;;7.58;34.29
7754;BME280;3921;42.266;23.122;2023-04-07T10:13:33;95332.81;;;9.07;33.22
7754;BME280;3921;42.266;23.122;2023-04-07T10:16:06;95170.19;;;8.39;34.44
7754;BME280;3921;42.266;23.122;2023-04-07T10:18:34;95033.50;;;7.77;34.02
7754;BME280;3921;42.266;23.122;2023-04-07T10:21:04;95192.59;;;8.77;33.95
7754;BME280;3921;42.266;23.122;2023-04-07T10:23:48;95314.16;;;9.72;33.59
7754;BME280;3921;42.266;23.122;2023-04-07T10:26:20;95443.34;;;10.64;33.76
7754;BME280;3921;42.266;23.122;2023-04-07T10:28:54;95203.13;;;9.45;33.61
7754;BME280;3921;42.266;23.122;2023-04-07T10:31:24;95364.69;;;10.61;33.86
7754;BME280;3921;42.266;23.122;2023-04-07T10:33:52;95193.84;;;9.58;33.61
7754;BME280;3921;42.266;23.122;2023-04-07T10:36:21;95296.13;;;10.47;33.51
7754;BME280;3921;42.266;23.122;2023-04-07T10:39:22;95466.63;;;11.85;33.19
7754;BME280;3921;42.266;23.122;2023-04-07T10:41:50;95356.56;;;11.22;32.83
7754;BME280;3921;42.266;23.122;2023-04-07T10:47:25;95449.94;;;11.73;32.00
7754;BME280;3921;42.266;23.122;2023-04-07T10:50:17;95473.34;;;11.84;32.23
7754;BME280;3921;42.266;23.122;2023-04-07T10:52:46;95417.44;;;11.55;32.77
7754;BME280;3921;42.266;23.122;2023-04-07T10:55:31;95227.44;;;10.51;33.18
7754;BME280;3921;42.266;23.122;2023-04-07T10:58:23;95466.50;;;11.95;33.11
7754;BME280;3921;42.266;23.122;2023-04-07T11:01:16;95470.72;;;11.95;31.98
7754;BME280;3921;42.266;23.122;2023-04-07T11:03:56;95411.59;;;11.50;32.41
7754;BME280;3921;42.266;23.122;2023-04-07T11:06:24;95387.50;;;11.30;32.62
7754;BME280;3921;42.266;23.122;2023-04-07T11:08:52;95353.47;;;10.94;33.13
7754;BME280;3921;42.266;23.122;2023-04-07T11:11:34;95127.81;;;9.54;32.53
7754;BME280;3921;42.266;23.122;2023-04-07T11:14:05;95489.59;;;11.51;32.95
7754;BME280;3921;42.266;23.122;2023-04-07T11:16:37;95233.66;;;10.04;33.42
7754;BME280;3921;42.266;23.122;2023-04-07T11:19:04;95312.00;;;10.49;32.88
7754;BME280;3921;42.266;23.122;2023-04-07T11:21:32;95342.75;;;10.75;33.07
7754;BME280;3921;42.266;23.122;2023-04-07T11:23:59;95378.78;;;10.74;33.40
7754;BME280;3921;42.266;23.122;2023-04-07T11:26:26;95274.53;;;10.20;33.40
7754;BME280;3921;42.266;23.122;2023-04-07T11:28:55;95267.03;;;10.17;33.17
7754;BME280;3921;42.266;23.122;2023-04-07T11:31:26;95295.28;;;10.43;33.36
7754;BME280;3921;42.266;23.122;2023-04-07T11:33:54;95386.22;;;10.88;33.63
7754;BME280;3921;42.266;23.122;2023-04-07T11:36:28;95187.09;;;9.66;33.17
7754;BME280;3921;42.266;23.122;2023-04-07T11:38:58;95441.16;;;11.28;33.28
7754;BME280;3921;42.266;23.122;2023-04-07T11:41:27;95429.56;;;11.14;33.31
7754;BME280;3921;42.266;23.122;2023-04-07T11:44:05;95196.28;;;9.67;33.35
7754;BME280;3921;42.266;23.122;2023-04-07T11:46:35;95343.69;;;10.65;33.33
7754;BME280;3921;42.266;23.122;2023-04-07T11:49:10;95332.81;;;10.63;33.48
7754;BME280;3921;42.266;23.122;2023-04-07T11:51:37;95391.09;;;11.05;33.63
7754;BME280;3921;42.266;23.122;2023-04-07T11:54:05;95193.69;;;9.82;33.50
7754;BME280;3921;42.266;23.122;2023-04-07T11:56:43;94973.13;;;8.61;33.35
7754;BME280;3921;42.266;23.122;2023-04-07T11:59:25;95202.72;;;10.00;33.42
7754;BME280;3921;42.266;23.122;2023-04-07T12:01:54;94978.16;;;8.54;33.40
7754;BME280;3921;42.266;23.122;2023-04-07T12:04:21;95319.28;;;10.79;33.48
7754;BME280;3921;42.266;23.122;2023-04-07T12:06:48;95329.28;;;10.82;33.53
7754;BME280;3921;42.266;23.122;2023-04-07T12:09:27;95418.31;;;11.49;34.12
7754;BME280;3921;42.266;23.122;2023-04-07T12:11:55;95288.38;;;10.70;33.22
7754;BME280;3921;42.266;23.122;2023-04-07T12:14:23;95086.97;;;9.40;33.13
7754;BME280;3921;42.266;23.122;2023-04-07T12:16:50;95326.78;;;10.84;32.93
7754;BME280;3921;42.266;23.122;2023-04-07T12:19:22;95319.13;;;10.93;33.54
7754;BME280;3921;42.266;23.122;2023-04-07T12:21:49;95290.00;;;10.72;33.36
7754;BME280;3921;42.266;23.122;2023-04-07T12:24:16;95233.34;;;10.45;33.08
7754;BME280;3921;42.266;23.122;2023-04-07T12:26:43;95335.66;;;11.19;33.51
7754;BME280;3921;42.266;23.122;2023-04-07T12:29:10;95179.97;;;10.23;33.37
7754;BME280;3921;42.266;23.122;2023-04-07T12:31:37;95353.97;;;11.28;33.22
7754;BME280;3921;42.266;23.122;2023-04-07T12:34:04;95319.00;;;11.08;33.56
7754;BME280;3921;42.266;23.122;2023-04-07T12:36:33;95324.78;;;11.15;33.28
7754;BME280;3921;42.266;23.122;2023-04-07T12:39:00;95036.03;;;9.34;33.25
7754;BME280;3921;42.266;23.122;2023-04-07T12:41:27;95315.53;;;11.17;33.23
7754;BME280;3921;42.266;23.122;2023-04-07T12:43:55;95297.94;;;11.19;33.01
7754;BME280;3921;42.266;23.122;2023-04-07T12:46:22;95116.53;;;10.03;32.88
7754;BME280;3921;42.266;23.122;2023-04-07T12:48:57;95158.00;;;10.42;32.79
7754;BME280;3921;42.266;23.122;2023-04-07T12:51:24;95406.84;;;12.01;32.87
7754;BME280;3921;42.266;23.122;2023-04-07T12:53:53;95118.00;;;10.25;32.86
7754;BME280;3921;42.266;23.122;2023-04-07T12:56:20;95322.81;;;11.40;32.59
7754;BME280;3921;42.266;23.122;2023-04-07T12:58:47;95312.81;;;11.37;32.54
7754;BME280;3921;42.266;23.122;2023-04-07T13:01:14;95058.19;;;9.82;33.08
7754;BME280;3921;42.266;23.122;2023-04-07T13:03:41;95347.00;;;11.53;32.91
7754;BME280;3921;42.266;23.122;2023-04-07T13:06:08;95281.19;;;11.16;33.15
7754;BME280;3921;42.266;23.122;2023-04-07T13:08:36;95370.22;;;11.74;32.87
7754;BME280;3921;42.266;23.122;2023-04-07T13:11:04;95238.56;;;11.07;32.73
7754;BME280;3921;42.266;23.122;2023-04-07T13:13:32;95269.38;;;11.24;33.57
7754;BME280;3921;42.266;23.122;2023-04-07T13:15:59;95438.53;;;12.17;33.64
7754;BME280;3921;42.266;23.122;2023-04-07T13:18:26;94983.38;;;9.34;33.54
7754;BME280;3921;42.266;23.122;2023-04-07T13:20:53;95417.47;;;12.24;33.74
7754;BME280;3921;42.266;23.122;2023-04-07T13:23:20;95320.22;;;11.48;34.13
7754;BME280;3921;42.266;23.122;2023-04-07T13:25:47;95310.13;;;11.49;33.93
7754;BME280;3921;42.266;23.122;2023-04-07T13:28:16;95337.56;;;11.69;33.90
7754;BME280;3921;42.266;23.122;2023-04-07T13:30:45;95303.59;;;11.36;34.29
7754;BME280;3921;42.266;23.122;2023-04-07T13:33:12;95203.75;;;10.70;34.03